Terminal Aerodrome Forecast
Issued by NWS Kansas City/Pleasant Hill, MO

Home | Current Version | Previous Version | Text Only | Print | Product List | Glossary On
Versions: 1 2 3 4 5 6 7 8 9 10 11 12 13 14
458
FTUS43 KEAX 231002 AAA
TAFMCI
TAF AMD
KMCI 231002Z 2310/2406 34010KT P6SM BKN015
     FM231500 01012KT P6SM BKN050
     FM231800 34015KT P6SM SCT200
     FM240000 33006KT P6SM FEW250=

USA.gov is the U.S. government's official web portal to all federal, state and local government web resources and services.